createdAt,value
2023-05-09T00:01:14.878Z,56.08
2023-05-09T00:03:47.737Z,55.99
2023-05-09T00:06:20.155Z,56.21
2023-05-09T00:08:52.393Z,56.07
2023-05-09T00:11:24.797Z,56.23
2023-05-09T00:13:57.491Z,56.42
2023-05-09T00:16:29.988Z,56.20
2023-05-09T00:19:03.384Z,56.26
2023-05-09T00:21:35.918Z,56.08
2023-05-09T00:24:09.267Z,56.30
2023-05-09T00:26:41.603Z,56.03
2023-05-09T00:29:13.958Z,56.21
2023-05-09T00:31:46.224Z,56.37
2023-05-09T00:34:18.371Z,56.25
2023-05-09T00:36:51.001Z,56.29
2023-05-09T00:39:23.266Z,56.39
2023-05-09T00:41:56.915Z,56.30
2023-05-09T00:44:29.155Z,56.39
2023-05-09T00:47:01.518Z,56.32
2023-05-09T00:49:34.183Z,56.32
2023-05-09T00:52:07.982Z,56.21
2023-05-09T00:54:40.494Z,56.34
2023-05-09T00:57:13.080Z,56.29
2023-05-09T00:59:45.519Z,56.28
2023-05-09T01:02:18.505Z,56.28
2023-05-09T01:04:51.359Z,56.52
2023-05-09T01:07:31.540Z,56.48
2023-05-09T01:10:09.329Z,56.30
2023-05-09T01:12:51.199Z,56.29
2023-05-09T01:15:30.570Z,56.33
2023-05-09T01:18:11.044Z,56.64
2023-05-09T01:20:47.512Z,56.51
2023-05-09T01:23:46.260Z,56.61
2023-05-09T01:26:26.838Z,56.87
2023-05-09T01:29:27.170Z,56.96
2023-05-09T01:32:01.257Z,57.12
2023-05-09T01:34:36.721Z,57.15
2023-05-09T01:37:10.856Z,57.18
2023-05-09T01:39:47.969Z,56.99
2023-05-09T01:42:22.561Z,57.09
2023-05-09T01:44:53.974Z,57.05
2023-05-09T01:47:26.831Z,56.95
2023-05-09T01:50:01.091Z,57.24
2023-05-09T01:52:36.461Z,57.09
2023-05-09T01:55:12.192Z,57.46
2023-05-09T01:57:45.823Z,57.43
2023-05-09T02:00:20.092Z,57.31
2023-05-09T02:02:53.333Z,57.31
2023-05-09T02:05:29.808Z,57.30
2023-05-09T02:08:02.130Z,57.49
2023-05-09T02:10:36.455Z,57.49
2023-05-09T02:13:10.269Z,57.66
2023-05-09T02:15:43.372Z,57.29
2023-05-09T02:18:16.924Z,57.33
2023-05-09T02:20:49.441Z,57.59
2023-05-09T02:23:23.599Z,57.86
2023-05-09T02:25:56.154Z,58.03
2023-05-09T02:28:29.709Z,58.14
2023-05-09T02:31:06.509Z,58.38
2023-05-09T02:33:40.590Z,58.27
2023-05-09T02:36:15.393Z,57.97
2023-05-09T02:38:49.056Z,57.88
2023-05-09T02:41:21.835Z,57.90
2023-05-09T02:43:54.129Z,58.11
2023-05-09T02:46:27.128Z,57.76
2023-05-09T02:48:59.551Z,57.88
2023-05-09T02:51:32.477Z,57.80
2023-05-09T02:54:05.116Z,57.79
2023-05-09T02:56:37.339Z,57.69
2023-05-09T02:59:09.558Z,57.80
2023-05-09T03:01:41.813Z,57.73
2023-05-09T03:04:15.050Z,57.79
2023-05-09T03:06:47.559Z,57.86
2023-05-09T03:09:20.144Z,58.09
2023-05-09T03:11:52.666Z,58.21
2023-05-09T03:14:25.138Z,58.20
2023-05-09T03:16:57.586Z,58.20
2023-05-09T03:19:37.236Z,58.21
2023-05-09T03:22:10.558Z,58.20
2023-05-09T03:24:44.239Z,58.58
2023-05-09T03:27:16.763Z,58.57
2023-05-09T03:29:49.361Z,58.58
2023-05-09T03:32:21.827Z,58.58
2023-05-09T03:34:54.832Z,58.78
2023-05-09T03:37:27.350Z,58.85
2023-05-09T03:40:00.159Z,58.90
2023-05-09T03:42:34.124Z,58.89
2023-05-09T03:45:07.368Z,59.01
2023-05-09T03:47:40.004Z,58.80
2023-05-09T03:50:13.748Z,58.98
2023-05-09T03:52:47.668Z,58.84
2023-05-09T03:55:23.788Z,59.30
2023-05-09T03:57:55.004Z,59.19
2023-05-09T04:00:28.004Z,59.11
2023-05-09T04:03:06.578Z,58.92
2023-05-09T04:05:43.274Z,59.34
2023-05-09T04:08:20.154Z,59.24
2023-05-09T04:10:53.260Z,59.54
2023-05-09T04:13:25.758Z,59.57
2023-05-09T04:15:58.409Z,59.54
2023-05-09T04:18:31.362Z,59.43
2023-05-09T04:21:03.742Z,59.51
2023-05-09T04:23:36.320Z,59.58
2023-05-09T04:26:09.826Z,59.62
2023-05-09T04:28:42.301Z,59.59
2023-05-09T04:31:15.411Z,59.59
2023-05-09T04:33:49.118Z,59.69
2023-05-09T04:36:22.242Z,59.73
2023-05-09T04:38:54.742Z,59.60
2023-05-09T04:41:29.792Z,59.68
2023-05-09T04:44:02.789Z,59.68
2023-05-09T04:46:35.537Z,59.68
2023-05-09T04:49:08.114Z,59.59
2023-05-09T04:51:40.572Z,59.58
2023-05-09T04:54:13.519Z,59.71
2023-05-09T04:56:47.854Z,59.65
2023-05-09T04:59:21.512Z,60.21
2023-05-09T05:01:55.736Z,60.02
2023-05-09T05:04:28.351Z,60.24
2023-05-09T05:07:01.061Z,60.05
2023-05-09T05:09:33.280Z,60.21
2023-05-09T05:12:09.285Z,60.14
2023-05-09T05:14:42.632Z,60.02
2023-05-09T05:17:17.460Z,59.85
2023-05-09T05:19:50.497Z,60.12
2023-05-09T05:22:23.416Z,60.54
2023-05-09T05:24:56.259Z,60.38
2023-05-09T05:27:29.369Z,60.23
2023-05-09T05:30:02.469Z,60.45
2023-05-09T05:32:34.862Z,60.10
2023-05-09T05:35:08.213Z,60.15
2023-05-09T05:37:41.547Z,60.52
2023-05-09T05:40:14.370Z,60.36
2023-05-09T05:42:48.921Z,59.70
2023-05-09T05:45:22.004Z,59.87
2023-05-09T05:47:56.974Z,60.07
2023-05-09T05:50:30.588Z,59.88
2023-05-09T05:53:03.626Z,59.93
2023-05-09T05:55:36.381Z,59.71
2023-05-09T05:58:10.485Z,59.15
2023-05-09T06:00:43.219Z,58.51
2023-05-09T06:03:16.196Z,57.80
2023-05-09T06:05:57.892Z,58.23
2023-05-09T06:08:30.326Z,56.99
2023-05-09T06:11:05.997Z,57.07
2023-05-09T06:13:38.332Z,56.79
2023-05-09T06:16:19.596Z,55.51
2023-05-09T06:18:55.877Z,56.11
2023-05-09T06:21:28.405Z,55.27
2023-05-09T06:24:08.353Z,54.92
2023-05-09T06:26:42.488Z,53.65
2023-05-09T06:29:15.554Z,52.41
2023-05-09T06:31:48.016Z,52.47
2023-05-09T06:34:20.215Z,52.19
2023-05-09T06:36:52.573Z,51.44
2023-05-09T06:39:24.819Z,50.45
2023-05-09T06:41:57.238Z,49.92
2023-05-09T06:44:35.606Z,50.42
2023-05-09T06:47:07.956Z,49.58
2023-05-09T06:49:40.121Z,49.11
2023-05-09T06:52:12.968Z,49.00
2023-05-09T06:54:45.303Z,49.46
2023-05-09T06:57:17.614Z,48.71
2023-05-09T06:59:50.753Z,48.54
2023-05-09T07:02:23.579Z,47.73
2023-05-09T07:04:56.275Z,47.79
2023-05-09T07:07:28.688Z,47.82
2023-05-09T07:10:10.451Z,46.93
2023-05-09T07:12:43.524Z,46.77
2023-05-09T07:15:28.786Z,47.28
2023-05-09T07:18:10.014Z,47.19
2023-05-09T07:20:42.638Z,47.00
2023-05-09T07:23:15.075Z,47.10
2023-05-09T07:25:47.270Z,47.34
2023-05-09T07:28:19.760Z,47.78
2023-05-09T07:30:52.398Z,46.06
2023-05-09T07:33:24.683Z,46.21
2023-05-09T07:35:57.098Z,46.06
2023-05-09T07:38:29.376Z,46.09
2023-05-09T07:41:01.877Z,45.94
2023-05-09T07:43:34.271Z,45.82
2023-05-09T07:46:06.560Z,44.90
2023-05-09T07:48:39.005Z,45.54
2023-05-09T07:51:11.318Z,44.98
2023-05-09T07:53:43.565Z,42.85
2023-05-09T07:56:15.985Z,42.45
2023-05-09T07:58:48.155Z,41.92
2023-05-09T08:01:21.290Z,41.37
2023-05-09T08:03:53.656Z,41.35
2023-05-09T08:06:26.574Z,41.60
2023-05-09T08:08:59.068Z,41.10
2023-05-09T08:11:32.383Z,40.46
2023-05-09T08:14:04.866Z,41.08
2023-05-09T08:16:37.292Z,42.03
2023-05-09T08:19:09.675Z,42.03
2023-05-09T08:21:41.856Z,41.99
2023-05-09T08:24:14.072Z,42.02
2023-05-09T08:26:46.439Z,40.93
2023-05-09T08:29:18.790Z,40.49
2023-05-09T08:31:51.522Z,40.19
2023-05-09T08:34:24.841Z,39.79
2023-05-09T08:36:57.112Z,40.12
2023-05-09T08:39:29.388Z,40.11
2023-05-09T08:42:02.814Z,40.37
2023-05-09T08:44:34.971Z,39.80
2023-05-09T08:47:08.345Z,39.78
2023-05-09T08:49:41.281Z,39.75
2023-05-09T08:52:13.717Z,40.30
2023-05-09T08:54:46.279Z,40.53
2023-05-09T08:57:18.849Z,39.19
2023-05-09T08:59:52.804Z,37.96
2023-05-09T09:02:25.681Z,36.73
2023-05-09T09:04:58.731Z,37.33
2023-05-09T09:07:31.702Z,37.38
2023-05-09T09:10:07.030Z,37.31
2023-05-09T09:12:39.960Z,37.43
2023-05-09T09:15:17.416Z,36.85
2023-05-09T09:17:52.688Z,37.07
2023-05-09T09:20:27.213Z,37.43
2023-05-09T09:23:02.141Z,38.64
2023-05-09T09:25:34.619Z,38.68
2023-05-09T09:28:07.211Z,38.51
2023-05-09T09:30:48.399Z,38.55
2023-05-09T09:33:25.470Z,38.95
2023-05-09T09:35:59.800Z,38.09
2023-05-09T09:38:43.903Z,38.50
2023-05-09T09:41:16.499Z,37.04
2023-05-09T09:43:49.103Z,37.27
2023-05-09T09:46:21.614Z,37.00
2023-05-09T09:48:57.647Z,36.14
2023-05-09T09:51:32.516Z,37.01
2023-05-09T09:54:04.987Z,36.09
2023-05-09T09:56:46.016Z,36.47
2023-05-09T09:59:19.774Z,35.66
2023-05-09T10:02:07.675Z,37.06
2023-05-09T10:04:42.927Z,37.30
2023-05-09T10:07:15.744Z,36.67
2023-05-09T10:09:49.509Z,37.02
2023-05-09T10:12:23.582Z,36.47
2023-05-09T10:14:56.676Z,36.64
2023-05-09T10:17:31.730Z,35.96
2023-05-09T10:20:07.276Z,35.37
2023-05-09T10:22:41.718Z,34.88
2023-05-09T10:25:20.554Z,34.33
2023-05-09T10:27:55.881Z,33.88
2023-05-09T10:30:34.292Z,34.32
2023-05-09T10:33:11.898Z,34.42
2023-05-09T10:35:48.806Z,34.89
2023-05-09T10:38:21.502Z,34.94
2023-05-09T10:40:54.696Z,33.80
2023-05-09T10:43:27.288Z,33.72
2023-05-09T10:45:59.467Z,34.82
2023-05-09T10:48:33.428Z,34.20
2023-05-09T10:51:09.216Z,35.18
2023-05-09T10:53:45.938Z,37.01
2023-05-09T10:56:32.900Z,35.08
2023-05-09T10:59:05.682Z,34.92
2023-05-09T11:01:40.139Z,35.61
2023-05-09T11:04:18.339Z,35.54
2023-05-09T11:06:52.545Z,35.51
2023-05-09T11:09:35.849Z,34.80
2023-05-09T11:12:16.657Z,36.13
2023-05-09T11:14:51.795Z,33.65
2023-05-09T11:17:33.544Z,31.99
2023-05-09T11:20:08.150Z,33.00
2023-05-09T11:22:44.724Z,32.27
2023-05-09T11:25:18.446Z,32.21
2023-05-09T11:27:52.365Z,32.56
2023-05-09T11:30:35.918Z,31.99
2023-05-09T11:33:22.319Z,32.24
2023-05-09T11:36:25.746Z,32.42
2023-05-09T11:39:10.122Z,32.75
2023-05-09T11:41:48.383Z,32.21
2023-05-09T11:44:19.839Z,32.91
2023-05-09T11:46:52.115Z,32.34
2023-05-09T11:49:24.820Z,32.50
2023-05-09T11:52:00.465Z,34.36
2023-05-09T11:54:32.520Z,32.67
2023-05-09T11:57:04.760Z,32.95
2023-05-09T11:59:39.681Z,33.18
2023-05-09T12:02:12.598Z,32.64
2023-05-09T12:04:45.204Z,32.76
2023-05-09T12:07:19.019Z,32.35
2023-05-09T12:09:53.069Z,33.23
2023-05-09T12:12:25.357Z,32.41
2023-05-09T12:14:57.525Z,32.00
2023-05-09T12:17:29.966Z,32.02
2023-05-09T12:20:04.885Z,32.27
2023-05-09T12:22:37.744Z,31.36
2023-05-09T12:25:12.557Z,31.67
2023-05-09T12:27:44.869Z,31.95
2023-05-09T12:30:18.738Z,33.30
2023-05-09T12:32:51.440Z,31.51
2023-05-09T12:35:24.573Z,31.89
2023-05-09T12:38:01.785Z,31.40
2023-05-09T12:40:34.392Z,30.96
2023-05-09T12:43:06.704Z,31.06
2023-05-09T12:45:42.486Z,30.45
2023-05-09T12:48:15.152Z,30.71
2023-05-09T12:50:49.902Z,31.34
2023-05-09T12:53:30.761Z,31.35
2023-05-09T12:56:06.906Z,31.03
2023-05-09T12:58:39.639Z,30.54
2023-05-09T13:01:12.429Z,30.55
2023-05-09T13:03:45.026Z,30.85
2023-05-09T13:06:17.387Z,30.28
2023-05-09T13:09:01.860Z,30.40
2023-05-09T13:11:34.551Z,31.10
2023-05-09T13:14:07.097Z,30.27
2023-05-09T13:16:39.582Z,30.36
2023-05-09T13:19:12.029Z,29.98
2023-05-09T13:21:44.253Z,30.25
2023-05-09T13:24:16.488Z,29.61
2023-05-09T13:26:48.490Z,29.52
2023-05-09T13:29:20.686Z,30.29
2023-05-09T13:31:53.051Z,30.49
2023-05-09T13:34:25.240Z,30.22
2023-05-09T13:36:57.709Z,29.87
2023-05-09T13:39:30.089Z,31.35
2023-05-09T13:42:02.663Z,32.86
2023-05-09T13:44:34.812Z,32.34
2023-05-09T13:47:07.890Z,30.52
2023-05-09T13:49:40.089Z,30.98
2023-05-09T13:52:12.240Z,29.89
2023-05-09T13:54:44.557Z,30.25
2023-05-09T13:57:22.594Z,29.99
2023-05-09T13:59:54.725Z,29.69
2023-05-09T14:02:27.126Z,29.83
2023-05-09T14:04:59.973Z,30.18
2023-05-09T14:07:32.739Z,31.25
2023-05-09T14:10:11.431Z,30.35
2023-05-09T14:12:46.822Z,30.61
2023-05-09T14:15:17.611Z,30.15
2023-05-09T14:17:49.955Z,30.23
2023-05-09T14:20:22.441Z,30.43
2023-05-09T14:22:59.752Z,29.98
2023-05-09T14:25:32.467Z,30.52
2023-05-09T14:28:04.689Z,31.05
2023-05-09T14:30:36.765Z,30.29
2023-05-09T14:33:08.779Z,30.07
2023-05-09T14:35:41.784Z,29.42
2023-05-09T14:38:14.651Z,30.79
2023-05-09T14:40:47.091Z,30.50
2023-05-09T14:43:19.781Z,31.20
2023-05-09T14:45:52.198Z,29.57
2023-05-09T14:48:24.941Z,30.86
2023-05-09T14:50:57.352Z,31.23
2023-05-09T14:53:30.638Z,29.04
2023-05-09T14:56:02.965Z,28.91
2023-05-09T14:58:35.544Z,29.03
2023-05-09T15:01:07.742Z,29.06
2023-05-09T15:03:40.270Z,29.28
2023-05-09T15:06:14.881Z,29.20
2023-05-09T15:08:47.934Z,29.16
2023-05-09T15:11:20.383Z,29.40
2023-05-09T15:13:54.453Z,30.42
2023-05-09T15:16:26.754Z,31.10
2023-05-09T15:18:59.869Z,28.86
2023-05-09T15:21:33.417Z,28.72
2023-05-09T15:24:05.618Z,29.19
2023-05-09T15:26:37.712Z,29.69
2023-05-09T15:29:11.503Z,29.00
2023-05-09T15:31:43.858Z,28.72
2023-05-09T15:34:16.471Z,29.06
2023-05-09T15:36:48.598Z,29.13
2023-05-09T15:39:20.923Z,28.79
2023-05-09T15:41:54.111Z,31.87
2023-05-09T15:44:26.882Z,30.53
2023-05-09T15:46:59.363Z,30.10
2023-05-09T15:49:31.998Z,30.56
2023-05-09T15:52:05.229Z,29.99
2023-05-09T15:54:38.136Z,30.15
2023-05-09T15:57:10.784Z,30.86
2023-05-09T15:59:43.471Z,29.69
2023-05-09T16:02:15.746Z,30.02
2023-05-09T16:04:49.730Z,29.63
2023-05-09T16:07:22.000Z,28.85
2023-05-09T16:09:54.532Z,28.94
2023-05-09T16:12:27.044Z,29.31
2023-05-09T16:14:59.415Z,28.97
2023-05-09T16:17:32.597Z,28.54
2023-05-09T16:20:05.213Z,28.95
2023-05-09T16:22:37.590Z,29.51
2023-05-09T16:25:12.549Z,28.86
2023-05-09T16:27:45.237Z,28.76
2023-05-09T16:30:18.736Z,29.08
2023-05-09T16:32:50.783Z,29.52
2023-05-09T16:35:23.188Z,29.08
2023-05-09T16:37:55.355Z,29.38
2023-05-09T16:40:28.638Z,29.30
2023-05-09T16:43:00.840Z,28.80
2023-05-09T16:45:33.323Z,28.66
2023-05-09T16:48:05.956Z,28.73
2023-05-09T16:50:38.558Z,28.84
2023-05-09T16:53:10.688Z,28.93
2023-05-09T16:55:43.016Z,28.65
2023-05-09T16:58:15.386Z,28.78
2023-05-09T17:00:47.926Z,29.71
2023-05-09T17:03:20.865Z,29.15
2023-05-09T17:05:53.203Z,29.32
2023-05-09T17:08:25.564Z,29.46
2023-05-09T17:10:57.900Z,29.46
2023-05-09T17:13:30.129Z,29.56
2023-05-09T17:16:03.071Z,29.51
2023-05-09T17:18:38.069Z,29.62
2023-05-09T17:21:10.664Z,29.51
2023-05-09T17:23:42.772Z,29.50
2023-05-09T17:26:15.048Z,29.29
2023-05-09T17:28:47.967Z,29.54
2023-05-09T17:31:20.171Z,29.62
2023-05-09T17:33:52.489Z,29.43
2023-05-09T17:36:25.781Z,29.18
2023-05-09T17:38:57.783Z,29.17
2023-05-09T17:41:30.430Z,29.24
2023-05-09T17:44:02.796Z,29.16
2023-05-09T17:46:35.738Z,29.26
2023-05-09T17:49:10.936Z,29.41
2023-05-09T17:51:44.073Z,29.17
2023-05-09T17:54:19.016Z,29.15
2023-05-09T17:56:56.083Z,29.00
2023-05-09T17:59:29.228Z,29.04
2023-05-09T18:02:01.534Z,29.11
2023-05-09T18:04:34.622Z,29.40
2023-05-09T18:07:11.033Z,29.66
2023-05-09T18:09:43.185Z,29.82
2023-05-09T18:12:15.835Z,30.19
2023-05-09T18:14:48.173Z,30.33
2023-05-09T18:17:20.684Z,31.00
2023-05-09T18:19:54.206Z,31.31
2023-05-09T18:22:27.002Z,31.97
2023-05-09T18:24:59.444Z,32.06
2023-05-09T18:27:32.226Z,31.73
2023-05-09T18:30:04.928Z,32.32
2023-05-09T18:32:37.297Z,32.53
2023-05-09T18:35:11.143Z,32.61
2023-05-09T18:37:43.995Z,32.72
2023-05-09T18:40:16.982Z,33.50
2023-05-09T18:42:50.150Z,33.49
2023-05-09T18:45:22.554Z,33.49
2023-05-09T18:47:58.780Z,33.98
2023-05-09T18:50:31.500Z,34.11
2023-05-09T18:53:04.030Z,34.56
2023-05-09T18:55:36.251Z,34.86
2023-05-09T18:58:09.088Z,34.75
2023-05-09T19:00:42.862Z,35.15
2023-05-09T19:03:15.201Z,35.14
2023-05-09T19:05:47.624Z,35.12
2023-05-09T19:08:19.861Z,35.04
2023-05-09T19:10:52.217Z,35.12
2023-05-09T19:13:24.710Z,35.44
2023-05-09T19:15:56.884Z,35.36
2023-05-09T19:18:29.786Z,35.67
2023-05-09T19:21:02.518Z,35.80
2023-05-09T19:23:34.984Z,36.16
2023-05-09T19:26:07.269Z,36.57
2023-05-09T19:28:40.479Z,36.44
2023-05-09T19:31:12.823Z,36.72
2023-05-09T19:33:46.520Z,37.06
2023-05-09T19:36:18.984Z,37.28
2023-05-09T19:38:51.460Z,37.55
2023-05-09T19:41:23.624Z,36.76
2023-05-09T19:43:56.172Z,36.83
2023-05-09T19:46:28.546Z,37.17
2023-05-09T19:49:01.035Z,36.96
2023-05-09T19:51:33.268Z,36.95
2023-05-09T19:54:05.643Z,36.80
2023-05-09T19:56:38.405Z,36.91
2023-05-09T19:59:10.573Z,37.04
2023-05-09T20:01:42.952Z,37.50
2023-05-09T20:04:16.497Z,37.13
2023-05-09T20:06:48.726Z,37.00
2023-05-09T20:09:21.405Z,37.36
2023-05-09T20:11:53.679Z,37.47
2023-05-09T20:14:26.148Z,37.12
2023-05-09T20:16:59.631Z,37.38
2023-05-09T20:19:32.126Z,37.12
2023-05-09T20:22:04.571Z,36.93
2023-05-09T20:24:36.765Z,37.14
2023-05-09T20:27:09.058Z,37.00
2023-05-09T20:29:41.316Z,37.38
2023-05-09T20:32:13.578Z,37.55
2023-05-09T20:34:46.691Z,37.44
2023-05-09T20:37:19.385Z,37.30
2023-05-09T20:39:51.834Z,37.44
2023-05-09T20:42:24.384Z,37.56
2023-05-09T20:44:57.189Z,37.53
2023-05-09T20:47:29.653Z,37.64
2023-05-09T20:50:02.382Z,37.83
2023-05-09T20:52:35.440Z,37.77
2023-05-09T20:55:08.772Z,37.85
2023-05-09T20:57:40.809Z,38.02
2023-05-09T21:00:14.970Z,37.83
2023-05-09T21:02:47.365Z,38.04
2023-05-09T21:05:19.601Z,37.82
2023-05-09T21:07:51.800Z,38.08
2023-05-09T21:10:24.039Z,37.80
2023-05-09T21:12:56.355Z,38.03
2023-05-09T21:15:28.911Z,37.86
2023-05-09T21:18:01.303Z,38.45
2023-05-09T21:20:33.810Z,38.23
2023-05-09T21:23:06.280Z,37.86
2023-05-09T21:25:38.443Z,38.30
2023-05-09T21:28:10.880Z,38.47
2023-05-09T21:30:43.142Z,38.35
2023-05-09T21:33:15.589Z,38.77
2023-05-09T21:35:48.060Z,38.42
2023-05-09T21:38:20.171Z,38.65
2023-05-09T21:40:53.599Z,38.36
2023-05-09T21:43:25.745Z,38.69
2023-05-09T21:45:58.156Z,38.46
2023-05-09T21:48:30.216Z,38.47
2023-05-09T21:51:05.049Z,38.55
2023-05-09T21:53:35.725Z,38.69
2023-05-09T21:56:09.286Z,38.78
2023-05-09T21:58:41.630Z,38.71
2023-05-09T22:01:14.051Z,38.96
2023-05-09T22:03:46.317Z,39.07
2023-05-09T22:06:18.913Z,39.25
2023-05-09T22:08:51.816Z,39.23
2023-05-09T22:11:24.462Z,40.12
2023-05-09T22:13:56.827Z,39.99
2023-05-09T22:16:30.108Z,39.70
2023-05-09T22:19:02.617Z,39.94
2023-05-09T22:21:35.080Z,40.17
2023-05-09T22:27:44.003Z,39.73
2023-05-09T22:30:16.884Z,40.15
2023-05-09T22:32:49.240Z,40.30
2023-05-09T22:35:21.680Z,40.12
2023-05-09T22:37:53.635Z,40.23
2023-05-09T22:40:26.531Z,40.30
2023-05-09T22:42:58.808Z,40.90
2023-05-09T22:45:30.951Z,41.21
2023-05-09T22:48:03.609Z,41.24
2023-05-09T22:50:36.533Z,41.85
2023-05-09T22:53:09.279Z,42.01
2023-05-09T22:55:41.853Z,41.95
2023-05-09T22:58:14.007Z,42.11
2023-05-09T23:00:46.475Z,42.46
2023-05-09T23:03:18.742Z,42.66
2023-05-09T23:05:51.510Z,42.61
2023-05-09T23:08:23.850Z,42.78
2023-05-09T23:10:56.215Z,42.52
2023-05-09T23:13:28.389Z,42.93
2023-05-09T23:16:01.216Z,43.00
2023-05-09T23:18:33.461Z,43.07
2023-05-09T23:21:05.896Z,43.31
2023-05-09T23:23:38.612Z,43.52
2023-05-09T23:26:11.030Z,43.58
2023-05-09T23:28:43.090Z,43.73
2023-05-09T23:34:11.360Z,43.86
2023-05-09T23:36:43.329Z,43.82
2023-05-09T23:39:16.446Z,44.39
2023-05-09T23:41:48.505Z,44.17
2023-05-09T23:44:20.562Z,44.20
2023-05-09T23:46:52.656Z,44.20
2023-05-09T23:49:24.887Z,44.60
2023-05-09T23:55:19.114Z,44.65
2023-05-09T23:57:51.705Z,44.59
